aviador You're here:

KADF Decoded Metar

in
Report Time2017-06-29 12:15:00
UTC Time2017-06-29 12:30:14
Flight Rules mvfr MVFR
WindCalm
Visibility9999 m
Phenomena:N/A
Clouds:Few 012 Hf
Overcast 021 Hf
Expected CloudBase > 400 ft AGL from Temp-Dew spread
Ceiling2,100 ft
Temp23°C
Dew Point22°C (94% RH)
QNH1014 hPa
Raw Report
KADF 291215Z AUTO 00000KT 10SM FEW012 OVC021 23/22 A2995 RMK
AO2=

Extra information for KADF:More info

Social comments